<?xml version='1.0' encoding='UTF-8'?>
<gpx xmlns="http://www.topografix.com/GPX/1/1" creator="www.balnam.be" version="1.1" xmlns:xsi="http://www.w3.org/2001/XMLSchema-instance" xsi:schemaLocation="http://www.topografix.com/GPX/1/1 http://www.topografix.com/GPX/1/1/gpx.xsd">
<trk>
<name>bgnhv1</name>
<cmt>v</cmt>
<desc>Houtain-le-Val Chemin n°1 Chemin de Reves</desc>
<link href="https://chemins.be/houtainleval/chemin/1"/><trkseg>
<trkpt lat="50.576315" lon="4.436783"><time>2026-05-02T19:54:30Z</time></trkpt>
<trkpt lat="50.573926" lon="4.433123"><time>2026-05-02T20:04:30Z</time></trkpt>
<trkpt lat="50.571913" lon="4.431624"><time>2026-05-02T20:14:30Z</time></trkpt>
<trkpt lat="50.570574" lon="4.430592"><time>2026-05-02T20:24:30Z</time></trkpt>
<trkpt lat="50.569127" lon="4.429912"><time>2026-05-02T20:34:30Z</time></trkpt>
<trkpt lat="50.566367" lon="4.430092"><time>2026-05-02T20:44:30Z</time></trkpt>
<trkpt lat="50.565819" lon="4.430092"><time>2026-05-02T20:54:30Z</time></trkpt>
</trkseg></trk>
<trk>
<name>bgnhv1</name>
<cmt>d</cmt>
<desc>Houtain-le-Val Chemin n°1 Chemin de Reves</desc>
<link href="https://chemins.be/houtainleval/chemin/1"/><trkseg>
<trkpt lat="50.565819" lon="4.430092"><time>2026-05-02T20:54:30Z</time></trkpt>
<trkpt lat="50.564983" lon="4.430090"><time>2026-05-02T21:04:30Z</time></trkpt>
<trkpt lat="50.564039" lon="4.429609"><time>2026-05-02T21:14:30Z</time></trkpt>
</trkseg></trk>
<trk>
<name>bgnhv1</name>
<cmt>v</cmt>
<desc>Houtain-le-Val Chemin n°1 Chemin de Reves</desc>
<link href="https://chemins.be/houtainleval/chemin/1"/><trkseg>
<trkpt lat="50.564039" lon="4.429609"><time>2026-05-02T21:14:30Z</time></trkpt>
<trkpt lat="50.562665" lon="4.425910"><time>2026-05-02T21:24:30Z</time></trkpt>
<trkpt lat="50.562208" lon="4.424117"><time>2026-05-02T21:34:30Z</time></trkpt>
<trkpt lat="50.561175" lon="4.422492"><time>2026-05-02T21:44:30Z</time></trkpt>
<trkpt lat="50.559782" lon="4.421644"><time>2026-05-02T21:54:30Z</time></trkpt>
<trkpt lat="50.559422" lon="4.421869"><time>2026-05-02T22:04:30Z</time></trkpt>
<trkpt lat="50.558451" lon="4.421854"><time>2026-05-02T22:14:30Z</time></trkpt>
</trkseg>
</trk>
<trk>
<name>bgnhv10</name>
<cmt>r</cmt>
<desc>Houtain-le-Val Chemin n°10 de la Place</desc>
<link href="https://chemins.be/houtainleval/chemin/10"/><trkseg>
<trkpt lat="50.581802" lon="4.413183"><time>2026-05-02T19:54:30Z</time></trkpt>
<trkpt lat="50.582333" lon="4.411969"><time>2026-05-02T20:04:30Z</time></trkpt>
<trkpt lat="50.582306" lon="4.411574"><time>2026-05-02T20:14:30Z</time></trkpt>
<trkpt lat="50.582081" lon="4.411051"><time>2026-05-02T20:24:30Z</time></trkpt>
<trkpt lat="50.582378" lon="4.410091"><time>2026-05-02T20:34:30Z</time></trkpt>
<trkpt lat="50.582379" lon="4.409738"><time>2026-05-02T20:44:30Z</time></trkpt>
</trkseg>
</trk>
<trk>
<name>bgnhv11</name>
<cmt>r</cmt>
<desc>Houtain-le-Val Chemin n°11 Rue au Bois / Rue des Haies</desc>
<link href="https://chemins.be/houtainleval/chemin/11"/><trkseg>
<trkpt lat="50.577496" lon="4.412896"><time>2026-05-02T19:54:30Z</time></trkpt>
<trkpt lat="50.576201" lon="4.413559"><time>2026-05-02T20:04:30Z</time></trkpt>
<trkpt lat="50.575185" lon="4.412682"><time>2026-05-02T20:14:30Z</time></trkpt>
<trkpt lat="50.573928" lon="4.410267"><time>2026-05-02T20:24:30Z</time></trkpt>
<trkpt lat="50.571825" lon="4.406567"><time>2026-05-02T20:34:30Z</time></trkpt>
<trkpt lat="50.569624" lon="4.402344"><time>2026-05-02T20:44:30Z</time></trkpt>
<trkpt lat="50.567854" lon="4.399026"><time>2026-05-02T20:54:30Z</time></trkpt>
<trkpt lat="50.566794" lon="4.397091"><time>2026-05-02T21:04:30Z</time></trkpt>
<trkpt lat="50.566524" lon="4.396371"><time>2026-05-02T21:14:30Z</time></trkpt>
</trkseg></trk>
<trk>
<name>bgnhv11</name>
<cmt>s</cmt>
<desc>Houtain-le-Val Chemin n°11 Rue au Bois / Rue des Haies</desc>
<link href="https://chemins.be/houtainleval/chemin/11"/><trkseg>
<trkpt lat="50.566524" lon="4.396371"><time>2026-05-02T21:14:30Z</time></trkpt>
<trkpt lat="50.566668" lon="4.396004"><time>2026-05-02T21:24:30Z</time></trkpt>
<trkpt lat="50.566758" lon="4.395680"><time>2026-05-02T21:34:30Z</time></trkpt>
<trkpt lat="50.566354" lon="4.394875"><time>2026-05-02T21:44:30Z</time></trkpt>
<trkpt lat="50.566075" lon="4.393788"><time>2026-05-02T21:54:30Z</time></trkpt>
<trkpt lat="50.565473" lon="4.391035"><time>2026-05-02T22:04:30Z</time></trkpt>
</trkseg>
</trk>
<trk>
<name>bgnhv12</name>
<cmt>v</cmt>
<desc>Houtain-le-Val Chemin n°12 Chemin du Rappoy</desc>
<link href="https://chemins.be/houtainleval/chemin/12"/><trkseg>
<trkpt lat="50.580892" lon="4.388953"><time>2026-05-02T19:54:30Z</time></trkpt>
<trkpt lat="50.579318" lon="4.389686"><time>2026-05-02T20:04:30Z</time></trkpt>
<trkpt lat="50.578266" lon="4.390039"><time>2026-05-02T20:14:30Z</time></trkpt>
<trkpt lat="50.576657" lon="4.391506"><time>2026-05-02T20:24:30Z</time></trkpt>
<trkpt lat="50.576684" lon="4.392368"><time>2026-05-02T20:34:30Z</time></trkpt>
<trkpt lat="50.576477" lon="4.392650"><time>2026-05-02T20:44:30Z</time></trkpt>
</trkseg></trk>
<trk>
<name>bgnhv12</name>
<cmt>s</cmt>
<desc>Houtain-le-Val Chemin n°12 Chemin du Rappoy</desc>
<link href="https://chemins.be/houtainleval/chemin/12"/><trkseg>
<trkpt lat="50.576477" lon="4.392650"><time>2026-05-02T20:44:30Z</time></trkpt>
<trkpt lat="50.575065" lon="4.392903"><time>2026-05-02T20:54:30Z</time></trkpt>
<trkpt lat="50.572701" lon="4.392196"><time>2026-05-02T21:04:30Z</time></trkpt>
<trkpt lat="50.570265" lon="4.390925"><time>2026-05-02T21:14:30Z</time></trkpt>
<trkpt lat="50.567856" lon="4.391121"><time>2026-05-02T21:24:30Z</time></trkpt>
</trkseg></trk>
<trk>
<name>bgnhv12</name>
<cmt>q</cmt>
<desc>Houtain-le-Val Chemin n°12 Chemin du Rappoy</desc>
<link href="https://chemins.be/houtainleval/chemin/12"/><trkseg>
<trkpt lat="50.567856" lon="4.391121"><time>2026-05-02T21:24:30Z</time></trkpt>
<trkpt lat="50.565581" lon="4.390979"><time>2026-05-02T21:34:30Z</time></trkpt>
</trkseg></trk>
<trk>
<name>bgnhv12</name>
<cmt>s</cmt>
<desc>Houtain-le-Val Chemin n°12 Chemin du Rappoy</desc>
<link href="https://chemins.be/houtainleval/chemin/12"/><trkseg>
<trkpt lat="50.565581" lon="4.390979"><time>2026-05-02T21:34:30Z</time></trkpt>
<trkpt lat="50.563397" lon="4.390921"><time>2026-05-02T21:44:30Z</time></trkpt>
</trkseg>
</trk>
<trk>
<name>bgnhv12bis</name>
<cmt>v</cmt>
<desc>Houtain-le-Val Chemin n°12bis </desc>
<link href="https://chemins.be/houtainleval/chemin/12bis"/><trkseg>
<trkpt lat="50.576558" lon="4.392636"><time>2026-05-02T19:54:30Z</time></trkpt>
<trkpt lat="50.574696" lon="4.396221"><time>2026-05-02T20:04:30Z</time></trkpt>
<trkpt lat="50.574723" lon="4.396277"><time>2026-05-02T20:14:30Z</time></trkpt>
<trkpt lat="50.572097" lon="4.399918"><time>2026-05-02T20:24:30Z</time></trkpt>
<trkpt lat="50.569642" lon="4.402358"><time>2026-05-02T20:34:30Z</time></trkpt>
</trkseg>
</trk>
<trk>
<name>bgnhv13</name>
<cmt>r</cmt>
<desc>Houtain-le-Val Chemin n°13 Chemin de la Croix des Bribeux</desc>
<link href="https://chemins.be/houtainleval/chemin/13"/><trkseg>
<trkpt lat="50.578272" lon="4.405231"><time>2026-05-02T19:54:30Z</time></trkpt>
<trkpt lat="50.579971" lon="4.403524"><time>2026-05-02T20:04:30Z</time></trkpt>
<trkpt lat="50.580870" lon="4.403016"><time>2026-05-02T20:14:30Z</time></trkpt>
<trkpt lat="50.581788" lon="4.401986"><time>2026-05-02T20:24:30Z</time></trkpt>
</trkseg>
</trk>
<trk>
<name>bgnhv14</name>
<cmt>r</cmt>
<desc>Houtain-le-Val Chemin n°14 Baty du Hazoy</desc>
<link href="https://chemins.be/houtainleval/chemin/14"/><trkseg>
<trkpt lat="50.588490" lon="4.414220"><time>2026-05-02T19:54:30Z</time></trkpt>
<trkpt lat="50.590072" lon="4.414236"><time>2026-05-02T20:04:30Z</time></trkpt>
</trkseg>
</trk>
<trk>
<name>bgnhv15</name>
<cmt>r</cmt>
<desc>Houtain-le-Val Chemin n°15 Chemin de Loncée</desc>
<link href="https://chemins.be/houtainleval/chemin/15"/><trkseg>
<trkpt lat="50.580747" lon="4.420030"><time>2026-05-02T19:54:30Z</time></trkpt>
<trkpt lat="50.582562" lon="4.421995"><time>2026-05-02T20:04:30Z</time></trkpt>
<trkpt lat="50.585033" lon="4.424694"><time>2026-05-02T20:14:30Z</time></trkpt>
</trkseg>
</trk>
<trk>
<name>bgnhv16</name>
<cmt>v</cmt>
<desc>Houtain-le-Val Chemin n°16 Chemin de Biecquenée</desc>
<link href="https://chemins.be/houtainleval/chemin/16"/><trkseg>
<trkpt lat="50.580414" lon="4.421060"><time>2026-05-02T19:54:30Z</time></trkpt>
<trkpt lat="50.580845" lon="4.421484"><time>2026-05-02T20:04:30Z</time></trkpt>
<trkpt lat="50.582002" lon="4.428545"><time>2026-05-02T20:14:30Z</time></trkpt>
<trkpt lat="50.582459" lon="4.430396"><time>2026-05-02T20:24:30Z</time></trkpt>
<trkpt lat="50.582592" lon="4.434335"><time>2026-05-02T20:34:30Z</time></trkpt>
</trkseg>
</trk>
<trk>
<name>bgnhv17</name>
<cmt>r</cmt>
<desc>Houtain-le-Val Chemin n°17 de Loncée</desc>
<link href="https://chemins.be/houtainleval/chemin/17"/><trkseg>
<trkpt lat="50.581477" lon="4.415823"><time>2026-05-02T19:54:30Z</time></trkpt>
<trkpt lat="50.582268" lon="4.416261"><time>2026-05-02T20:04:30Z</time></trkpt>
<trkpt lat="50.582340" lon="4.416968"><time>2026-05-02T20:14:30Z</time></trkpt>
<trkpt lat="50.582663" lon="4.417462"><time>2026-05-02T20:24:30Z</time></trkpt>
<trkpt lat="50.583894" lon="4.419285"><time>2026-05-02T20:34:30Z</time></trkpt>
<trkpt lat="50.585042" lon="4.424836"><time>2026-05-02T20:44:30Z</time></trkpt>
<trkpt lat="50.586389" lon="4.428283"><time>2026-05-02T20:54:30Z</time></trkpt>
<trkpt lat="50.588896" lon="4.431407"><time>2026-05-02T21:04:30Z</time></trkpt>
<trkpt lat="50.590072" lon="4.433357"><time>2026-05-02T21:14:30Z</time></trkpt>
</trkseg>
</trk>
<trk>
<name>bgnhv18</name>
<cmt>v</cmt>
<desc>Houtain-le-Val Chemin n°18 Chemin de Biamont</desc>
<link href="https://chemins.be/houtainleval/chemin/18"/><trkseg>
<trkpt lat="50.584238" lon="4.411066"><time>2026-05-02T19:54:30Z</time></trkpt>
<trkpt lat="50.586577" lon="4.409968"><time>2026-05-02T20:04:30Z</time></trkpt>
<trkpt lat="50.588240" lon="4.409630"><time>2026-05-02T20:14:30Z</time></trkpt>
<trkpt lat="50.590155" lon="4.409180"><time>2026-05-02T20:24:30Z</time></trkpt>
<trkpt lat="50.590776" lon="4.407839"><time>2026-05-02T20:34:30Z</time></trkpt>
</trkseg>
</trk>
<trk>
<name>bgnhv19</name>
<cmt>r</cmt>
<desc>Houtain-le-Val Chemin n°19 Rue de la Tourterelle</desc>
<link href="https://chemins.be/houtainleval/chemin/19"/><trkseg>
<trkpt lat="50.582414" lon="4.411771"><time>2026-05-02T19:54:30Z</time></trkpt>
<trkpt lat="50.582962" lon="4.412054"><time>2026-05-02T20:04:30Z</time></trkpt>
<trkpt lat="50.584211" lon="4.413213"><time>2026-05-02T20:14:30Z</time></trkpt>
<trkpt lat="50.584724" lon="4.413172"><time>2026-05-02T20:24:30Z</time></trkpt>
<trkpt lat="50.584724" lon="4.413510"><time>2026-05-02T20:34:30Z</time></trkpt>
<trkpt lat="50.584615" lon="4.414061"><time>2026-05-02T20:44:30Z</time></trkpt>
<trkpt lat="50.584606" lon="4.414824"><time>2026-05-02T20:54:30Z</time></trkpt>
<trkpt lat="50.585037" lon="4.415361"><time>2026-05-02T21:04:30Z</time></trkpt>
<trkpt lat="50.586332" lon="4.415404"><time>2026-05-02T21:14:30Z</time></trkpt>
</trkseg></trk>
<trk>
<name>bgnhv19</name>
<cmt>v</cmt>
<desc>Houtain-le-Val Chemin n°19 Rue de la Tourterelle</desc>
<link href="https://chemins.be/houtainleval/chemin/19"/><trkseg>
<trkpt lat="50.586332" lon="4.415404"><time>2026-05-02T21:14:30Z</time></trkpt>
<trkpt lat="50.588310" lon="4.414234"><time>2026-05-02T21:24:30Z</time></trkpt>
</trkseg>
</trk>
<trk>
<name>bgnhv2</name>
<cmt>v</cmt>
<desc>Houtain-le-Val Chemin n°2 de Rèves</desc>
<link href="https://chemins.be/houtainleval/chemin/2"/><trkseg>
<trkpt lat="50.563940" lon="4.429623"><time>2026-05-02T19:54:30Z</time></trkpt>
<trkpt lat="50.564084" lon="4.429920"><time>2026-05-02T20:04:30Z</time></trkpt>
</trkseg>
</trk>
<trk>
<name>bgnhv20</name>
<cmt>v</cmt>
<desc>Houtain-le-Val Chemin n°20 Ruelle Thomas</desc>
<link href="https://chemins.be/houtainleval/chemin/20"/><trkseg>
<trkpt lat="50.584014" lon="4.411025"><time>2026-05-02T19:54:30Z</time></trkpt>
<trkpt lat="50.583843" lon="4.411787"><time>2026-05-02T20:04:30Z</time></trkpt>
<trkpt lat="50.583627" lon="4.412690"><time>2026-05-02T20:14:30Z</time></trkpt>
</trkseg>
</trk>
<trk>
<name>bgnhv21</name>
<cmt>v</cmt>
<desc>Houtain-le-Val Chemin n°21 Aisance du Rappoy</desc>
<link href="https://chemins.be/houtainleval/chemin/21"/><trkseg>
<trkpt lat="50.581833" lon="4.402085"><time>2026-05-02T19:54:30Z</time></trkpt>
<trkpt lat="50.582606" lon="4.399826"><time>2026-05-02T20:04:30Z</time></trkpt>
<trkpt lat="50.582841" lon="4.397567"><time>2026-05-02T20:14:30Z</time></trkpt>
</trkseg>
</trk>
<trk>
<name>bgnhv22</name>
<cmt>v</cmt>
<desc>Houtain-le-Val Chemin n°22 Chemin Baty Mathurin</desc>
<link href="https://chemins.be/houtainleval/chemin/22"/><trkseg>
<trkpt lat="50.581860" lon="4.401929"><time>2026-05-02T19:54:30Z</time></trkpt>
<trkpt lat="50.580207" lon="4.396732"><time>2026-05-02T20:04:30Z</time></trkpt>
<trkpt lat="50.579111" lon="4.392538"><time>2026-05-02T20:14:30Z</time></trkpt>
<trkpt lat="50.578302" lon="4.390095"><time>2026-05-02T20:24:30Z</time></trkpt>
<trkpt lat="50.576478" lon="4.386664"><time>2026-05-02T20:34:30Z</time></trkpt>
<trkpt lat="50.575687" lon="4.384955"><time>2026-05-02T20:44:30Z</time></trkpt>
<trkpt lat="50.575561" lon="4.384348"><time>2026-05-02T20:54:30Z</time></trkpt>
</trkseg>
</trk>
<trk>
<name>bgnhv23</name>
<cmt>r</cmt>
<desc>Houtain-le-Val Chemin n°23 du Helu</desc>
<link href="https://chemins.be/houtainleval/chemin/23"/><trkseg>
<trkpt lat="50.582009" lon="4.411093"><time>2026-05-02T19:54:30Z</time></trkpt>
<trkpt lat="50.581785" lon="4.410853"><time>2026-05-02T20:04:30Z</time></trkpt>
<trkpt lat="50.581317" lon="4.410443"><time>2026-05-02T20:14:30Z</time></trkpt>
<trkpt lat="50.580805" lon="4.410937"><time>2026-05-02T20:24:30Z</time></trkpt>
<trkpt lat="50.580077" lon="4.410922"><time>2026-05-02T20:34:30Z</time></trkpt>
<trkpt lat="50.579627" lon="4.410371"><time>2026-05-02T20:44:30Z</time></trkpt>
<trkpt lat="50.579636" lon="4.410075"><time>2026-05-02T20:54:30Z</time></trkpt>
<trkpt lat="50.579142" lon="4.408733"><time>2026-05-02T21:04:30Z</time></trkpt>
</trkseg>
</trk>
<trk>
<name>bgnhv24</name>
<cmt>r</cmt>
<desc>Houtain-le-Val Chemin n°24 Pierre Lons (impasse)</desc>
<link href="https://chemins.be/houtainleval/chemin/24"/><trkseg>
<trkpt lat="50.581327" lon="4.410344"><time>2026-05-02T19:54:30Z</time></trkpt>
<trkpt lat="50.581318" lon="4.410189"><time>2026-05-02T20:04:30Z</time></trkpt>
<trkpt lat="50.581030" lon="4.408960"><time>2026-05-02T20:14:30Z</time></trkpt>
<trkpt lat="50.580932" lon="4.408028"><time>2026-05-02T20:24:30Z</time></trkpt>
</trkseg>
</trk>
<trk>
<name>bgnhv25</name>
<cmt>r</cmt>
<desc>Houtain-le-Val Chemin n°25 du Béguinage</desc>
<link href="https://chemins.be/houtainleval/chemin/25"/><trkseg>
<trkpt lat="50.578997" lon="4.413448"><time>2026-05-02T19:54:30Z</time></trkpt>
<trkpt lat="50.579006" lon="4.412474"><time>2026-05-02T20:04:30Z</time></trkpt>
<trkpt lat="50.579375" lon="4.411684"><time>2026-05-02T20:14:30Z</time></trkpt>
<trkpt lat="50.579465" lon="4.411275"><time>2026-05-02T20:24:30Z</time></trkpt>
<trkpt lat="50.579331" lon="4.410653"><time>2026-05-02T20:34:30Z</time></trkpt>
<trkpt lat="50.579618" lon="4.410371"><time>2026-05-02T20:44:30Z</time></trkpt>
</trkseg>
</trk>
<trk>
<name>bgnhv26</name>
<cmt>r</cmt>
<desc>Houtain-le-Val Chemin n°26 Chemin Mouline</desc>
<link href="https://chemins.be/houtainleval/chemin/26"/><trkseg>
<trkpt lat="50.582323" lon="4.413310"><time>2026-05-02T19:54:30Z</time></trkpt>
<trkpt lat="50.582979" lon="4.414059"><time>2026-05-02T20:04:30Z</time></trkpt>
<trkpt lat="50.583959" lon="4.414766"><time>2026-05-02T20:14:30Z</time></trkpt>
</trkseg></trk>
<trk>
<name>bgnhv26</name>
<cmt>q</cmt>
<desc>Houtain-le-Val Chemin n°26 Chemin Mouline</desc>
<link href="https://chemins.be/houtainleval/chemin/26"/><trkseg>
<trkpt lat="50.583959" lon="4.414766"><time>2026-05-02T20:14:30Z</time></trkpt>
<trkpt lat="50.583914" lon="4.415585"><time>2026-05-02T20:24:30Z</time></trkpt>
<trkpt lat="50.583932" lon="4.415868"><time>2026-05-02T20:34:30Z</time></trkpt>
<trkpt lat="50.584264" lon="4.416362"><time>2026-05-02T20:44:30Z</time></trkpt>
<trkpt lat="50.584812" lon="4.416603"><time>2026-05-02T20:54:30Z</time></trkpt>
<trkpt lat="50.584893" lon="4.416405"><time>2026-05-02T21:04:30Z</time></trkpt>
</trkseg>
</trk>
<trk>
<name>bgnhv27</name>
<cmt>q</cmt>
<desc>Houtain-le-Val Chemin n°27 ruelle à Cailloux</desc>
<link href="https://chemins.be/houtainleval/chemin/27"/><trkseg>
<trkpt lat="50.585100" lon="4.415431"><time>2026-05-02T19:54:30Z</time></trkpt>
<trkpt lat="50.585028" lon="4.415756"><time>2026-05-02T20:04:30Z</time></trkpt>
<trkpt lat="50.584902" lon="4.416066"><time>2026-05-02T20:14:30Z</time></trkpt>
<trkpt lat="50.584893" lon="4.416377"><time>2026-05-02T20:24:30Z</time></trkpt>
</trkseg>
</trk>
<trk>
<name>bgnhv28</name>
<cmt>v</cmt>
<desc>Houtain-le-Val Chemin n°28 Chemin Mouline</desc>
<link href="https://chemins.be/houtainleval/chemin/28"/><trkseg>
<trkpt lat="50.583968" lon="4.414738"><time>2026-05-02T19:54:30Z</time></trkpt>
<trkpt lat="50.584202" lon="4.414753"><time>2026-05-02T20:04:30Z</time></trkpt>
<trkpt lat="50.584247" lon="4.414908"><time>2026-05-02T20:14:30Z</time></trkpt>
<trkpt lat="50.584561" lon="4.414908"><time>2026-05-02T20:24:30Z</time></trkpt>
</trkseg>
</trk>
<trk>
<name>bgnhv29</name>
<cmt>d</cmt>
<desc>Houtain-le-Val Chemin n°29 Chemin de la Chaussée</desc>
<link href="https://chemins.be/houtainleval/chemin/29"/><trkseg>
<trkpt lat="50.577175" lon="4.425814"><time>2026-05-02T19:54:30Z</time></trkpt>
<trkpt lat="50.577290" lon="4.430036"><time>2026-05-02T20:04:30Z</time></trkpt>
<trkpt lat="50.577029" lon="4.431476"><time>2026-05-02T20:14:30Z</time></trkpt>
<trkpt lat="50.576865" lon="4.434271"><time>2026-05-02T20:24:30Z</time></trkpt>
</trkseg>
</trk>
<trk>
<name>bgnhv3</name>
<cmt>r</cmt>
<desc>Houtain-le-Val Chemin n°3 d'Houtain-le-Mont</desc>
<link href="https://chemins.be/houtainleval/chemin/3"/><trkseg>
<trkpt lat="50.581379" lon="4.415329"><time>2026-05-02T19:54:30Z</time></trkpt>
<trkpt lat="50.580911" lon="4.415272"><time>2026-05-02T20:04:30Z</time></trkpt>
<trkpt lat="50.580282" lon="4.414805"><time>2026-05-02T20:14:30Z</time></trkpt>
<trkpt lat="50.579320" lon="4.414945"><time>2026-05-02T20:24:30Z</time></trkpt>
<trkpt lat="50.579078" lon="4.414183"><time>2026-05-02T20:34:30Z</time></trkpt>
<trkpt lat="50.578988" lon="4.413448"><time>2026-05-02T20:44:30Z</time></trkpt>
</trkseg></trk>
<trk>
<name>bgnhv3</name>
<cmt>s</cmt>
<desc>Houtain-le-Val Chemin n°3 d'Houtain-le-Mont</desc>
<link href="https://chemins.be/houtainleval/chemin/3"/><trkseg>
<trkpt lat="50.578988" lon="4.413448"><time>2026-05-02T20:44:30Z</time></trkpt>
<trkpt lat="50.578727" lon="4.413180"><time>2026-05-02T20:54:30Z</time></trkpt>
<trkpt lat="50.578449" lon="4.413151"><time>2026-05-02T21:04:30Z</time></trkpt>
<trkpt lat="50.577909" lon="4.413518"><time>2026-05-02T21:14:30Z</time></trkpt>
<trkpt lat="50.577765" lon="4.413363"><time>2026-05-02T21:24:30Z</time></trkpt>
<trkpt lat="50.577568" lon="4.412840"><time>2026-05-02T21:34:30Z</time></trkpt>
</trkseg></trk>
<trk>
<name>bgnhv3</name>
<cmt>r</cmt>
<desc>Houtain-le-Val Chemin n°3 d'Houtain-le-Mont</desc>
<link href="https://chemins.be/houtainleval/chemin/3"/><trkseg>
<trkpt lat="50.577568" lon="4.412840"><time>2026-05-02T21:34:30Z</time></trkpt>
<trkpt lat="50.577361" lon="4.412035"><time>2026-05-02T21:44:30Z</time></trkpt>
<trkpt lat="50.577433" lon="4.411357"><time>2026-05-02T21:54:30Z</time></trkpt>
<trkpt lat="50.577110" lon="4.410750"><time>2026-05-02T22:04:30Z</time></trkpt>
<trkpt lat="50.575717" lon="4.408349"><time>2026-05-02T22:14:30Z</time></trkpt>
</trkseg>
</trk>
<trk>
<name>bgnhv30</name>
<cmt>v</cmt>
<desc>Houtain-le-Val Chemin n°30 Rue aux Chevaux</desc>
<link href="https://chemins.be/houtainleval/chemin/30"/><trkseg>
<trkpt lat="50.577089" lon="4.417400"><time>2026-05-02T19:54:30Z</time></trkpt>
<trkpt lat="50.577170" lon="4.418925"><time>2026-05-02T20:04:30Z</time></trkpt>
<trkpt lat="50.577546" lon="4.422794"><time>2026-05-02T20:14:30Z</time></trkpt>
<trkpt lat="50.577581" lon="4.424262"><time>2026-05-02T20:24:30Z</time></trkpt>
</trkseg>
</trk>
<trk>
<name>bgnhv31</name>
<cmt>d</cmt>
<desc>Houtain-le-Val Chemin n°31 Rue aux Chevaux</desc>
<link href="https://chemins.be/houtainleval/chemin/31"/><trkseg>
<trkpt lat="50.578420" lon="4.418375"><time>2026-05-02T19:54:30Z</time></trkpt>
<trkpt lat="50.577224" lon="4.418755"><time>2026-05-02T20:04:30Z</time></trkpt>
<trkpt lat="50.575066" lon="4.419642"><time>2026-05-02T20:14:30Z</time></trkpt>
</trkseg>
</trk>
<trk>
<name>bgnhv32</name>
<cmt>v</cmt>
<desc>Houtain-le-Val Chemin n°32 Chemin du Bois Blanc</desc>
<link href="https://chemins.be/houtainleval/chemin/32"/><trkseg>
<trkpt lat="50.574958" lon="4.418795"><time>2026-05-02T19:54:30Z</time></trkpt>
<trkpt lat="50.575021" lon="4.419642"><time>2026-05-02T20:04:30Z</time></trkpt>
</trkseg></trk>
<trk>
<name>bgnhv32</name>
<cmt>d</cmt>
<desc>Houtain-le-Val Chemin n°32 Chemin du Bois Blanc</desc>
<link href="https://chemins.be/houtainleval/chemin/32"/><trkseg>
<trkpt lat="50.575021" lon="4.419642"><time>2026-05-02T20:04:30Z</time></trkpt>
<trkpt lat="50.573402" lon="4.420064"><time>2026-05-02T20:14:30Z</time></trkpt>
<trkpt lat="50.571874" lon="4.420486"><time>2026-05-02T20:24:30Z</time></trkpt>
</trkseg></trk>
<trk>
<name>bgnhv32</name>
<cmt>v</cmt>
<desc>Houtain-le-Val Chemin n°32 Chemin du Bois Blanc</desc>
<link href="https://chemins.be/houtainleval/chemin/32"/><trkseg>
<trkpt lat="50.571874" lon="4.420486"><time>2026-05-02T20:24:30Z</time></trkpt>
<trkpt lat="50.569581" lon="4.421726"><time>2026-05-02T20:34:30Z</time></trkpt>
<trkpt lat="50.567701" lon="4.422500"><time>2026-05-02T20:44:30Z</time></trkpt>
<trkpt lat="50.566011" lon="4.423204"><time>2026-05-02T20:54:30Z</time></trkpt>
<trkpt lat="50.564842" lon="4.423315"><time>2026-05-02T21:04:30Z</time></trkpt>
</trkseg>
</trk>
<trk>
<name>bgnhv33</name>
<cmt>v</cmt>
<desc>Houtain-le-Val Chemin n°33 Chemin d'Aisance du Bois de Reves</desc>
<link href="https://chemins.be/houtainleval/chemin/33"/><trkseg>
<trkpt lat="50.568756" lon="4.416572"><time>2026-05-02T19:54:30Z</time></trkpt>
<trkpt lat="50.564811" lon="4.411247"><time>2026-05-02T20:04:30Z</time></trkpt>
</trkseg></trk>
<trk>
<name>bgnhv33</name>
<cmt>s</cmt>
<desc>Houtain-le-Val Chemin n°33 Chemin d'Aisance du Bois de Reves</desc>
<link href="https://chemins.be/houtainleval/chemin/33"/><trkseg>
<trkpt lat="50.564811" lon="4.411247"><time>2026-05-02T20:04:30Z</time></trkpt>
<trkpt lat="50.563833" lon="4.407774"><time>2026-05-02T20:14:30Z</time></trkpt>
<trkpt lat="50.563016" lon="4.404047"><time>2026-05-02T20:24:30Z</time></trkpt>
</trkseg>
</trk>
<trk>
<name>bgnhv34</name>
<cmt>r</cmt>
<desc>Houtain-le-Val Chemin n°34 ruellette du Bois de </desc>
<link href="https://chemins.be/houtainleval/chemin/34"/><trkseg>
<trkpt lat="50.567739" lon="4.418166"><time>2026-05-02T19:54:30Z</time></trkpt>
<trkpt lat="50.565654" lon="4.417614"><time>2026-05-02T20:04:30Z</time></trkpt>
<trkpt lat="50.564782" lon="4.417133"><time>2026-05-02T20:14:30Z</time></trkpt>
</trkseg>
</trk>
<trk>
<name>bgnhv35</name>
<cmt>v</cmt>
<desc>Houtain-le-Val Sentier n°35 du Hazoy</desc>
<link href="https://chemins.be/houtainleval/sentier/35"/><trkseg>
<trkpt lat="50.591754" lon="4.432498"><time>2026-05-02T19:54:30Z</time></trkpt>
<trkpt lat="50.592064" lon="4.431265"><time>2026-05-02T20:04:30Z</time></trkpt>
</trkseg></trk>
<trk>
<name>bgnhv35</name>
<cmt>d</cmt>
<desc>Houtain-le-Val Sentier n°35 du Hazoy</desc>
<link href="https://chemins.be/houtainleval/sentier/35"/><trkseg>
<trkpt lat="50.592064" lon="4.431265"><time>2026-05-02T20:04:30Z</time></trkpt>
<trkpt lat="50.592094" lon="4.431106"><time>2026-05-02T20:14:30Z</time></trkpt>
</trkseg>
</trk>
<trk>
<name>bgnhv36</name>
<cmt>v</cmt>
<desc>Houtain-le-Val Sentier n°36 Sentier de Loupoigne</desc>
<link href="https://chemins.be/houtainleval/sentier/36"/><trkseg>
<trkpt lat="50.586197" lon="4.415517"><time>2026-05-02T19:54:30Z</time></trkpt>
<trkpt lat="50.586547" lon="4.416031"><time>2026-05-02T20:04:30Z</time></trkpt>
<trkpt lat="50.587493" lon="4.417424"><time>2026-05-02T20:14:30Z</time></trkpt>
<trkpt lat="50.588012" lon="4.418188"><time>2026-05-02T20:24:30Z</time></trkpt>
<trkpt lat="50.589477" lon="4.420138"><time>2026-05-02T20:34:30Z</time></trkpt>
<trkpt lat="50.589845" lon="4.420788"><time>2026-05-02T20:44:30Z</time></trkpt>
</trkseg>
</trk>
<trk>
<name>bgnhv37</name>
<cmt>d</cmt>
<desc>Houtain-le-Val Sentier n°37 Sentier de Fonteny</desc>
<link href="https://chemins.be/houtainleval/sentier/37"/><trkseg>
<trkpt lat="50.590182" lon="4.409194"><time>2026-05-02T19:54:30Z</time></trkpt>
<trkpt lat="50.593886" lon="4.408844"><time>2026-05-02T20:04:30Z</time></trkpt>
</trkseg>
</trk>
<trk>
<name>bgnhv38</name>
<cmt>d</cmt>
<desc>Houtain-le-Val Sentier n°38 Sentier du Bois d'Hazoy</desc>
<link href="https://chemins.be/houtainleval/sentier/38"/><trkseg>
<trkpt lat="50.582642" lon="4.399770"><time>2026-05-02T19:54:30Z</time></trkpt>
<trkpt lat="50.583838" lon="4.398570"><time>2026-05-02T20:04:30Z</time></trkpt>
<trkpt lat="50.585799" lon="4.395931"><time>2026-05-02T20:14:30Z</time></trkpt>
</trkseg>
</trk>
<trk>
<name>bgnhv39</name>
<cmt>v</cmt>
<desc>Houtain-le-Val Sentier n°39 Sentier de Martin Sottia</desc>
<link href="https://chemins.be/houtainleval/sentier/39"/><trkseg>
<trkpt lat="50.582859" lon="4.397468"><time>2026-05-02T19:54:30Z</time></trkpt>
<trkpt lat="50.583012" lon="4.395859"><time>2026-05-02T20:04:30Z</time></trkpt>
</trkseg></trk>
<trk>
<name>bgnhv39</name>
<cmt>d</cmt>
<desc>Houtain-le-Val Sentier n°39 Sentier de Martin Sottia</desc>
<link href="https://chemins.be/houtainleval/sentier/39"/><trkseg>
<trkpt lat="50.583012" lon="4.395859"><time>2026-05-02T20:04:30Z</time></trkpt>
<trkpt lat="50.583246" lon="4.393402"><time>2026-05-02T20:14:30Z</time></trkpt>
<trkpt lat="50.583121" lon="4.391806"><time>2026-05-02T20:24:30Z</time></trkpt>
<trkpt lat="50.583112" lon="4.389716"><time>2026-05-02T20:34:30Z</time></trkpt>
</trkseg>
</trk>
<trk>
<name>bgnhv4</name>
<cmt>r</cmt>
<desc>Houtain-le-Val Chemin n°4 Rue de Reves</desc>
<link href="https://chemins.be/houtainleval/chemin/4"/><trkseg>
<trkpt lat="50.579302" lon="4.414960"><time>2026-05-02T19:54:30Z</time></trkpt>
<trkpt lat="50.577062" lon="4.417273"><time>2026-05-02T20:04:30Z</time></trkpt>
<trkpt lat="50.574913" lon="4.418710"><time>2026-05-02T20:14:30Z</time></trkpt>
<trkpt lat="50.572620" lon="4.419696"><time>2026-05-02T20:24:30Z</time></trkpt>
<trkpt lat="50.572162" lon="4.419611"><time>2026-05-02T20:34:30Z</time></trkpt>
<trkpt lat="50.567829" lon="4.418195"><time>2026-05-02T20:44:30Z</time></trkpt>
</trkseg>
</trk>
<trk>
<name>bgnhv40</name>
<cmt>r</cmt>
<desc>Houtain-le-Val Sentier n°40 Sentier du Bois de Roux et de Coquibus</desc>
<link href="https://chemins.be/houtainleval/sentier/40"/><trkseg>
<trkpt lat="50.580959" lon="4.407958"><time>2026-05-02T19:54:30Z</time></trkpt>
<trkpt lat="50.580788" lon="4.407449"><time>2026-05-02T20:04:30Z</time></trkpt>
</trkseg></trk>
<trk>
<name>bgnhv40</name>
<cmt>d</cmt>
<desc>Houtain-le-Val Sentier n°40 Sentier du Bois de Roux et de Coquibus</desc>
<link href="https://chemins.be/houtainleval/sentier/40"/><trkseg>
<trkpt lat="50.580788" lon="4.407449"><time>2026-05-02T20:04:30Z</time></trkpt>
<trkpt lat="50.580016" lon="4.403495"><time>2026-05-02T20:14:30Z</time></trkpt>
<trkpt lat="50.577905" lon="4.397875"><time>2026-05-02T20:24:30Z</time></trkpt>
<trkpt lat="50.576684" lon="4.392396"><time>2026-05-02T20:34:30Z</time></trkpt>
<trkpt lat="50.576666" lon="4.391436"><time>2026-05-02T20:44:30Z</time></trkpt>
<trkpt lat="50.576289" lon="4.388499"><time>2026-05-02T20:54:30Z</time></trkpt>
<trkpt lat="50.576424" lon="4.386734"><time>2026-05-02T21:04:30Z</time></trkpt>
<trkpt lat="50.577108" lon="4.385309"><time>2026-05-02T21:14:30Z</time></trkpt>
</trkseg>
</trk>
<trk>
<name>bgnhv41</name>
<cmt>d</cmt>
<desc>Houtain-le-Val Sentier n°41 Sentier du Blanc Caillou</desc>
<link href="https://chemins.be/houtainleval/sentier/41"/><trkseg>
<trkpt lat="50.579259" lon="4.408380"><time>2026-05-02T19:54:30Z</time></trkpt>
<trkpt lat="50.580420" lon="4.405585"><time>2026-05-02T20:04:30Z</time></trkpt>
<trkpt lat="50.580888" lon="4.404442"><time>2026-05-02T20:14:30Z</time></trkpt>
<trkpt lat="50.581491" lon="4.402240"><time>2026-05-02T20:24:30Z</time></trkpt>
</trkseg>
</trk>
<trk>
<name>bgnhv42</name>
<cmt>v</cmt>
<desc>Houtain-le-Val Sentier n°42 Sentier de la Marliere et de l'Esprit</desc>
<link href="https://chemins.be/houtainleval/sentier/42"/><trkseg>
<trkpt lat="50.582352" lon="4.408199"><time>2026-05-02T19:54:30Z</time></trkpt>
<trkpt lat="50.581588" lon="4.408255"><time>2026-05-02T20:04:30Z</time></trkpt>
<trkpt lat="50.580977" lon="4.408014"><time>2026-05-02T20:14:30Z</time></trkpt>
</trkseg></trk>
<trk>
<name>bgnhv42</name>
<cmt>s</cmt>
<desc>Houtain-le-Val Sentier n°42 Sentier de la Marliere et de l'Esprit</desc>
<link href="https://chemins.be/houtainleval/sentier/42"/><trkseg>
<trkpt lat="50.580977" lon="4.408014"><time>2026-05-02T20:14:30Z</time></trkpt>
<trkpt lat="50.580033" lon="4.407886"><time>2026-05-02T20:24:30Z</time></trkpt>
</trkseg></trk>
<trk>
<name>bgnhv42</name>
<cmt>r</cmt>
<desc>Houtain-le-Val Sentier n°42 Sentier de la Marliere et de l'Esprit</desc>
<link href="https://chemins.be/houtainleval/sentier/42"/><trkseg>
<trkpt lat="50.580033" lon="4.407886"><time>2026-05-02T20:24:30Z</time></trkpt>
<trkpt lat="50.579322" lon="4.408507"><time>2026-05-02T20:34:30Z</time></trkpt>
</trkseg>
</trk>
<trk>
<name>bgnhv43</name>
<cmt>s</cmt>
<desc>Houtain-le-Val Sentier n°43 du Béguinage</desc>
<link href="https://chemins.be/houtainleval/sentier/43"/><trkseg>
<trkpt lat="50.581066" lon="4.408932"><time>2026-05-02T19:54:30Z</time></trkpt>
<trkpt lat="50.580895" lon="4.408918"><time>2026-05-02T20:04:30Z</time></trkpt>
<trkpt lat="50.579789" lon="4.410188"><time>2026-05-02T20:14:30Z</time></trkpt>
</trkseg>
</trk>
<trk>
<name>bgnhv44</name>
<cmt>v</cmt>
<desc>Houtain-le-Val Sentier n°44 Sentier de la Dreve</desc>
<link href="https://chemins.be/houtainleval/sentier/44"/><trkseg>
<trkpt lat="50.581424" lon="4.414171"><time>2026-05-02T19:54:30Z</time></trkpt>
<trkpt lat="50.581038" lon="4.413789"><time>2026-05-02T20:04:30Z</time></trkpt>
<trkpt lat="50.580678" lon="4.412998"><time>2026-05-02T20:14:30Z</time></trkpt>
<trkpt lat="50.581029" lon="4.412166"><time>2026-05-02T20:24:30Z</time></trkpt>
<trkpt lat="50.581182" lon="4.411926"><time>2026-05-02T20:34:30Z</time></trkpt>
<trkpt lat="50.581524" lon="4.411347"><time>2026-05-02T20:44:30Z</time></trkpt>
<trkpt lat="50.581785" lon="4.410867"><time>2026-05-02T20:54:30Z</time></trkpt>
</trkseg>
</trk>
<trk>
<name>bgnhv45</name>
<cmt>v</cmt>
<desc>Houtain-le-Val Sentier n°45 Sentier de la Fontaine Mayaux</desc>
<link href="https://chemins.be/houtainleval/sentier/45"/><trkseg>
<trkpt lat="50.581757" lon="4.413225"><time>2026-05-02T19:54:30Z</time></trkpt>
<trkpt lat="50.581550" lon="4.412816"><time>2026-05-02T20:04:30Z</time></trkpt>
<trkpt lat="50.581452" lon="4.412350"><time>2026-05-02T20:14:30Z</time></trkpt>
<trkpt lat="50.581155" lon="4.411996"><time>2026-05-02T20:24:30Z</time></trkpt>
<trkpt lat="50.580832" lon="4.411488"><time>2026-05-02T20:34:30Z</time></trkpt>
<trkpt lat="50.580787" lon="4.410965"><time>2026-05-02T20:44:30Z</time></trkpt>
</trkseg>
</trk>
<trk>
<name>bgnhv46</name>
<cmt>v</cmt>
<desc>Houtain-le-Val Sentier n°46 Sentier d'Houtain-le-Mont</desc>
<link href="https://chemins.be/houtainleval/sentier/46"/><trkseg>
<trkpt lat="50.579033" lon="4.413491"><time>2026-05-02T19:54:30Z</time></trkpt>
<trkpt lat="50.579509" lon="4.413830"><time>2026-05-02T20:04:30Z</time></trkpt>
<trkpt lat="50.580273" lon="4.413902"><time>2026-05-02T20:14:30Z</time></trkpt>
<trkpt lat="50.581011" lon="4.413874"><time>2026-05-02T20:24:30Z</time></trkpt>
</trkseg>
</trk>
<trk>
<name>bgnhv47</name>
<cmt>s</cmt>
<desc>Houtain-le-Val Sentier n°47 d'Houtain-le-Mont</desc>
<link href="https://chemins.be/houtainleval/sentier/47"/><trkseg>
<trkpt lat="50.583608" lon="4.414540"><time>2026-05-02T19:54:30Z</time></trkpt>
<trkpt lat="50.584247" lon="4.413270"><time>2026-05-02T20:04:30Z</time></trkpt>
</trkseg>
</trk>
<trk>
<name>bgnhv48</name>
<cmt>v</cmt>
<desc>Houtain-le-Val Sentier n°48 Sentier du Pré Deridder</desc>
<link href="https://chemins.be/houtainleval/sentier/48"/><trkseg>
<trkpt lat="50.580505" lon="4.417785"><time>2026-05-02T19:54:30Z</time></trkpt>
<trkpt lat="50.580631" lon="4.418787"><time>2026-05-02T20:04:30Z</time></trkpt>
<trkpt lat="50.580837" lon="4.419225"><time>2026-05-02T20:14:30Z</time></trkpt>
</trkseg>
</trk>
<trk>
<name>bgnhv49</name>
<cmt>v</cmt>
<desc>Houtain-le-Val Sentier n°49 Sentier du Petit Champ</desc>
<link href="https://chemins.be/houtainleval/sentier/49"/><trkseg>
<trkpt lat="50.580596" lon="4.417418"><time>2026-05-02T19:54:30Z</time></trkpt>
<trkpt lat="50.580182" lon="4.417219"><time>2026-05-02T20:04:30Z</time></trkpt>
<trkpt lat="50.579624" lon="4.417685"><time>2026-05-02T20:14:30Z</time></trkpt>
<trkpt lat="50.578447" lon="4.418361"><time>2026-05-02T20:24:30Z</time></trkpt>
</trkseg>
</trk>
<trk>
<name>bgnhv5</name>
<cmt>r</cmt>
<desc>Houtain-le-Val Chemin n°5 de l'Arbre St Martin</desc>
<link href="https://chemins.be/houtainleval/chemin/5"/><trkseg>
<trkpt lat="50.578164" lon="4.405386"><time>2026-05-02T19:54:30Z</time></trkpt>
<trkpt lat="50.576761" lon="4.406952"><time>2026-05-02T20:04:30Z</time></trkpt>
<trkpt lat="50.575376" lon="4.408828"><time>2026-05-02T20:14:30Z</time></trkpt>
<trkpt lat="50.573802" lon="4.410352"><time>2026-05-02T20:24:30Z</time></trkpt>
<trkpt lat="50.572318" lon="4.412440"><time>2026-05-02T20:34:30Z</time></trkpt>
<trkpt lat="50.568846" lon="4.416629"><time>2026-05-02T20:44:30Z</time></trkpt>
<trkpt lat="50.567838" lon="4.418350"><time>2026-05-02T20:54:30Z</time></trkpt>
</trkseg></trk>
<trk>
<name>bgnhv5</name>
<cmt>v</cmt>
<desc>Houtain-le-Val Chemin n°5 de l'Arbre St Martin</desc>
<link href="https://chemins.be/houtainleval/chemin/5"/><trkseg>
<trkpt lat="50.567838" lon="4.418350"><time>2026-05-02T20:54:30Z</time></trkpt>
<trkpt lat="50.566966" lon="4.419676"><time>2026-05-02T21:04:30Z</time></trkpt>
<trkpt lat="50.564905" lon="4.423216"><time>2026-05-02T21:14:30Z</time></trkpt>
<trkpt lat="50.562692" lon="4.425839"><time>2026-05-02T21:24:30Z</time></trkpt>
</trkseg>
</trk>
<trk>
<name>bgnhv50</name>
<cmt>s</cmt>
<desc>Houtain-le-Val Sentier n°50 du Pré de l'Hôpital</desc>
<link href="https://chemins.be/houtainleval/sentier/50"/><trkseg>
<trkpt lat="50.577577" lon="4.411569"><time>2026-05-02T19:54:30Z</time></trkpt>
<trkpt lat="50.578225" lon="4.411443"><time>2026-05-02T20:04:30Z</time></trkpt>
<trkpt lat="50.578988" lon="4.412460"><time>2026-05-02T20:14:30Z</time></trkpt>
</trkseg>
</trk>
<trk>
<name>bgnhv51</name>
<cmt>s</cmt>
<desc>Houtain-le-Val Sentier n°51 du Pré de l'Hôpital</desc>
<link href="https://chemins.be/houtainleval/sentier/51"/><trkseg>
<trkpt lat="50.577433" lon="4.411329"><time>2026-05-02T19:54:30Z</time></trkpt>
<trkpt lat="50.577524" lon="4.410412"><time>2026-05-02T20:04:30Z</time></trkpt>
</trkseg>
</trk>
<trk>
<name>bgnhv52</name>
<cmt>v</cmt>
<desc>Houtain-le-Val Sentier n°52 de Ninove</desc>
<link href="https://chemins.be/houtainleval/sentier/52"/><trkseg>
<trkpt lat="50.577361" lon="4.411767"><time>2026-05-02T19:54:30Z</time></trkpt>
<trkpt lat="50.577083" lon="4.411583"><time>2026-05-02T20:04:30Z</time></trkpt>
</trkseg></trk>
<trk>
<name>bgnhv52</name>
<cmt>s</cmt>
<desc>Houtain-le-Val Sentier n°52 de Ninove</desc>
<link href="https://chemins.be/houtainleval/sentier/52"/><trkseg>
<trkpt lat="50.577083" lon="4.411583"><time>2026-05-02T20:04:30Z</time></trkpt>
<trkpt lat="50.576885" lon="4.411456"><time>2026-05-02T20:14:30Z</time></trkpt>
<trkpt lat="50.576229" lon="4.410453"><time>2026-05-02T20:24:30Z</time></trkpt>
<trkpt lat="50.575448" lon="4.408800"><time>2026-05-02T20:34:30Z</time></trkpt>
</trkseg>
</trk>
<trk>
<name>bgnhv53</name>
<cmt>s</cmt>
<desc>Houtain-le-Val Sentier n°53 de la Haye</desc>
<link href="https://chemins.be/houtainleval/sentier/53"/><trkseg>
<trkpt lat="50.577074" lon="4.411639"><time>2026-05-02T19:54:30Z</time></trkpt>
<trkpt lat="50.574224" lon="4.410776"><time>2026-05-02T20:04:30Z</time></trkpt>
</trkseg>
</trk>
<trk>
<name>bgnhv54</name>
<cmt>s</cmt>
<desc>Houtain-le-Val Sentier n°54 des Deux Cerisiers</desc>
<link href="https://chemins.be/houtainleval/sentier/54"/><trkseg>
<trkpt lat="50.575735" lon="4.408321"><time>2026-05-02T19:54:30Z</time></trkpt>
<trkpt lat="50.572106" lon="4.399706"><time>2026-05-02T20:04:30Z</time></trkpt>
<trkpt lat="50.569060" lon="4.394961"><time>2026-05-02T20:14:30Z</time></trkpt>
<trkpt lat="50.567487" lon="4.391135"><time>2026-05-02T20:24:30Z</time></trkpt>
</trkseg>
</trk>
<trk>
<name>bgnhv55</name>
<cmt>s</cmt>
<desc>Houtain-le-Val Sentier n°55 du passage du Saut</desc>
<link href="https://chemins.be/houtainleval/sentier/55"/><trkseg>
<trkpt lat="50.575295" lon="4.407360"><time>2026-05-02T19:54:30Z</time></trkpt>
<trkpt lat="50.572089" lon="4.407168"><time>2026-05-02T20:04:30Z</time></trkpt>
</trkseg></trk>
<trk>
<name>bgnhv55</name>
<cmt>d</cmt>
<desc>Houtain-le-Val Sentier n°55 du passage du Saut</desc>
<link href="https://chemins.be/houtainleval/sentier/55"/><trkseg>
<trkpt lat="50.572089" lon="4.407168"><time>2026-05-02T20:04:30Z</time></trkpt>
<trkpt lat="50.567403" lon="4.404135"><time>2026-05-02T20:14:30Z</time></trkpt>
<trkpt lat="50.562917" lon="4.402537"><time>2026-05-02T20:24:30Z</time></trkpt>
</trkseg>
</trk>
<trk>
<name>bgnhv56</name>
<cmt>s</cmt>
<desc>Houtain-le-Val Sentier n°56 des Champs de Rèves</desc>
<link href="https://chemins.be/houtainleval/sentier/56"/><trkseg>
<trkpt lat="50.565728" lon="4.412476"><time>2026-05-02T19:54:30Z</time></trkpt>
<trkpt lat="50.565225" lon="4.412363"><time>2026-05-02T20:04:30Z</time></trkpt>
<trkpt lat="50.564658" lon="4.411953"><time>2026-05-02T20:14:30Z</time></trkpt>
</trkseg>
</trk>
<trk>
<name>bgnhv57</name>
<cmt>s</cmt>
<desc>Houtain-le-Val Sentier n°57 du Stordoir</desc>
<link href="https://chemins.be/houtainleval/sentier/57"/><trkseg>
<trkpt lat="50.576120" lon="4.413785"><time>2026-05-02T19:54:30Z</time></trkpt>
<trkpt lat="50.572415" lon="4.416901"><time>2026-05-02T20:04:30Z</time></trkpt>
<trkpt lat="50.569394" lon="4.416375"><time>2026-05-02T20:14:30Z</time></trkpt>
</trkseg>
</trk>
<trk>
<name>bgnhv58</name>
<cmt>s</cmt>
<desc>Houtain-le-Val Sentier n°58 Sentier de Watinmé</desc>
<link href="https://chemins.be/houtainleval/sentier/58"/><trkseg>
<trkpt lat="50.568675" lon="4.416685"><time>2026-05-02T19:54:30Z</time></trkpt>
<trkpt lat="50.567578" lon="4.416402"><time>2026-05-02T20:04:30Z</time></trkpt>
<trkpt lat="50.566112" lon="4.417713"><time>2026-05-02T20:14:30Z</time></trkpt>
<trkpt lat="50.562956" lon="4.420208"><time>2026-05-02T20:24:30Z</time></trkpt>
<trkpt lat="50.559979" lon="4.421842"><time>2026-05-02T20:34:30Z</time></trkpt>
</trkseg>
</trk>
<trk>
<name>bgnhv59</name>
<cmt>s</cmt>
<desc>Houtain-le-Val Sentier n°59 de Rèves</desc>
<link href="https://chemins.be/houtainleval/sentier/59"/><trkseg>
<trkpt lat="50.564779" lon="4.423287"><time>2026-05-02T19:54:30Z</time></trkpt>
<trkpt lat="50.561633" lon="4.423269"><time>2026-05-02T20:04:30Z</time></trkpt>
</trkseg>
</trk>
<trk>
<name>bgnhv6</name>
<cmt>r</cmt>
<desc>Houtain-le-Val Chemin n°6 Chemin de Buzet</desc>
<link href="https://chemins.be/houtainleval/chemin/6"/><trkseg>
<trkpt lat="50.577173" lon="4.410792"><time>2026-05-02T19:54:30Z</time></trkpt>
<trkpt lat="50.577722" lon="4.410016"><time>2026-05-02T20:04:30Z</time></trkpt>
<trkpt lat="50.579286" lon="4.408620"><time>2026-05-02T20:14:30Z</time></trkpt>
<trkpt lat="50.578137" lon="4.405188"><time>2026-05-02T20:24:30Z</time></trkpt>
</trkseg></trk>
<trk>
<name>bgnhv6</name>
<cmt>v</cmt>
<desc>Houtain-le-Val Chemin n°6 Chemin de Buzet</desc>
<link href="https://chemins.be/houtainleval/chemin/6"/><trkseg>
<trkpt lat="50.578137" lon="4.405188"><time>2026-05-02T20:24:30Z</time></trkpt>
<trkpt lat="50.577041" lon="4.402547"><time>2026-05-02T20:34:30Z</time></trkpt>
<trkpt lat="50.575801" lon="4.399906"><time>2026-05-02T20:44:30Z</time></trkpt>
<trkpt lat="50.574741" lon="4.396334"><time>2026-05-02T20:54:30Z</time></trkpt>
<trkpt lat="50.572737" lon="4.392196"><time>2026-05-02T21:04:30Z</time></trkpt>
</trkseg>
</trk>
<trk>
<name>bgnhv60</name>
<cmt>s</cmt>
<desc>Houtain-le-Val Sentier n°60 du Bois Blanc</desc>
<link href="https://chemins.be/houtainleval/sentier/60"/><trkseg>
<trkpt lat="50.562611" lon="4.425895"><time>2026-05-02T19:54:30Z</time></trkpt>
<trkpt lat="50.559553" lon="4.429364"><time>2026-05-02T20:04:30Z</time></trkpt>
<trkpt lat="50.559229" lon="4.430450"><time>2026-05-02T20:14:30Z</time></trkpt>
</trkseg>
</trk>
<trk>
<name>bgnhv61</name>
<cmt>d</cmt>
<desc>Houtain-le-Val Sentier n°61 de Rèves</desc>
<link href="https://chemins.be/houtainleval/sentier/61"/><trkseg>
<trkpt lat="50.563859" lon="4.429510"><time>2026-05-02T19:54:30Z</time></trkpt>
<trkpt lat="50.561414" lon="4.428957"><time>2026-05-02T20:04:30Z</time></trkpt>
<trkpt lat="50.560623" lon="4.428165"><time>2026-05-02T20:14:30Z</time></trkpt>
</trkseg></trk>
<trk>
<name>bgnhv61</name>
<cmt>s</cmt>
<desc>Houtain-le-Val Sentier n°61 de Rèves</desc>
<link href="https://chemins.be/houtainleval/sentier/61"/><trkseg>
<trkpt lat="50.560623" lon="4.428165"><time>2026-05-02T20:14:30Z</time></trkpt>
<trkpt lat="50.559060" lon="4.426456"><time>2026-05-02T20:24:30Z</time></trkpt>
</trkseg>
</trk>
<trk>
<name>bgnhv62</name>
<cmt>s</cmt>
<desc>Houtain-le-Val Sentier n°62 de la Place</desc>
<link href="https://chemins.be/houtainleval/sentier/62"/><trkseg>
<trkpt lat="50.578385" lon="4.413787"><time>2026-05-02T19:54:30Z</time></trkpt>
<trkpt lat="50.578269" lon="4.413292"><time>2026-05-02T20:04:30Z</time></trkpt>
</trkseg>
</trk>
<trk>
<name>bgnhv63</name>
<cmt>v</cmt>
<desc>Houtain-le-Val Sentier n°63 du Bois de Sompti</desc>
<link href="https://chemins.be/houtainleval/sentier/63"/><trkseg>
<trkpt lat="50.574230" lon="4.418823"><time>2026-05-02T19:54:30Z</time></trkpt>
<trkpt lat="50.573987" lon="4.418272"><time>2026-05-02T20:04:30Z</time></trkpt>
<trkpt lat="50.573511" lon="4.418173"><time>2026-05-02T20:14:30Z</time></trkpt>
</trkseg></trk>
<trk>
<name>bgnhv63</name>
<cmt>s</cmt>
<desc>Houtain-le-Val Sentier n°63 du Bois de Sompti</desc>
<link href="https://chemins.be/houtainleval/sentier/63"/><trkseg>
<trkpt lat="50.573511" lon="4.418173"><time>2026-05-02T20:14:30Z</time></trkpt>
<trkpt lat="50.572217" lon="4.417846"><time>2026-05-02T20:24:30Z</time></trkpt>
<trkpt lat="50.570050" lon="4.417209"><time>2026-05-02T20:34:30Z</time></trkpt>
<trkpt lat="50.568828" lon="4.416728"><time>2026-05-02T20:44:30Z</time></trkpt>
</trkseg>
</trk>
<trk>
<name>bgnhv64</name>
<cmt>s</cmt>
<desc>Houtain-le-Val Sentier n°64 Sentier du Petit Champ</desc>
<link href="https://chemins.be/houtainleval/sentier/64"/><trkseg>
<trkpt lat="50.576743" lon="4.407079"><time>2026-05-02T19:54:30Z</time></trkpt>
<trkpt lat="50.577156" lon="4.407390"><time>2026-05-02T20:04:30Z</time></trkpt>
<trkpt lat="50.577498" lon="4.407461"><time>2026-05-02T20:14:30Z</time></trkpt>
<trkpt lat="50.579161" lon="4.408436"><time>2026-05-02T20:24:30Z</time></trkpt>
</trkseg>
</trk>
<trk>
<name>bgnhv65</name>
<cmt>s</cmt>
<desc>Houtain-le-Val Sentier n°65 des prés Badeau</desc>
<link href="https://chemins.be/houtainleval/sentier/65"/><trkseg>
<trkpt lat="50.579042" lon="4.413759"><time>2026-05-02T19:54:30Z</time></trkpt>
<trkpt lat="50.578448" lon="4.413829"><time>2026-05-02T20:04:30Z</time></trkpt>
<trkpt lat="50.577765" lon="4.414238"><time>2026-05-02T20:14:30Z</time></trkpt>
<trkpt lat="50.577288" lon="4.414675"><time>2026-05-02T20:24:30Z</time></trkpt>
<trkpt lat="50.576218" lon="4.415084"><time>2026-05-02T20:34:30Z</time></trkpt>
<trkpt lat="50.575067" lon="4.415435"><time>2026-05-02T20:44:30Z</time></trkpt>
<trkpt lat="50.574429" lon="4.415336"><time>2026-05-02T20:54:30Z</time></trkpt>
</trkseg>
</trk>
<trk>
<name>bgnhv66</name>
<cmt>v</cmt>
<desc>Houtain-le-Val Sentier n°66 Sentier de Buzet</desc>
<link href="https://chemins.be/houtainleval/sentier/66"/><trkseg>
<trkpt lat="50.572710" lon="4.392069"><time>2026-05-02T19:54:30Z</time></trkpt>
<trkpt lat="50.571263" lon="4.389048"><time>2026-05-02T20:04:30Z</time></trkpt>
<trkpt lat="50.570708" lon="4.386905"><time>2026-05-02T20:14:30Z</time></trkpt>
</trkseg></trk>
<trk>
<name>bgnhv66</name>
<cmt>s</cmt>
<desc>Houtain-le-Val Sentier n°66 Sentier de Buzet</desc>
<link href="https://chemins.be/houtainleval/sentier/66"/><trkseg>
<trkpt lat="50.570708" lon="4.386905"><time>2026-05-02T20:14:30Z</time></trkpt>
<trkpt lat="50.569845" lon="4.384473"><time>2026-05-02T20:24:30Z</time></trkpt>
<trkpt lat="50.568859" lon="4.380267"><time>2026-05-02T20:34:30Z</time></trkpt>
<trkpt lat="50.567937" lon="4.378601"><time>2026-05-02T20:44:30Z</time></trkpt>
</trkseg>
</trk>
<trk>
<name>bgnhv7</name>
<cmt>r</cmt>
<desc>Houtain-le-Val Chemin n°7 Chemin du Tilleul</desc>
<link href="https://chemins.be/houtainleval/chemin/7"/><trkseg>
<trkpt lat="50.581468" lon="4.415894"><time>2026-05-02T19:54:30Z</time></trkpt>
<trkpt lat="50.580649" lon="4.417375"><time>2026-05-02T20:04:30Z</time></trkpt>
<trkpt lat="50.580011" lon="4.418688"><time>2026-05-02T20:14:30Z</time></trkpt>
</trkseg></trk>
<trk>
<name>bgnhv7</name>
<cmt>v</cmt>
<desc>Houtain-le-Val Chemin n°7 Chemin du Tilleul</desc>
<link href="https://chemins.be/houtainleval/chemin/7"/><trkseg>
<trkpt lat="50.580011" lon="4.418688"><time>2026-05-02T20:14:30Z</time></trkpt>
<trkpt lat="50.579363" lon="4.419944"><time>2026-05-02T20:24:30Z</time></trkpt>
<trkpt lat="50.578670" lon="4.421552"><time>2026-05-02T20:34:30Z</time></trkpt>
<trkpt lat="50.577644" lon="4.424078"><time>2026-05-02T20:44:30Z</time></trkpt>
<trkpt lat="50.577095" lon="4.425899"><time>2026-05-02T20:54:30Z</time></trkpt>
<trkpt lat="50.576509" lon="4.427225"><time>2026-05-02T21:04:30Z</time></trkpt>
<trkpt lat="50.574234" lon="4.429100"><time>2026-05-02T21:14:30Z</time></trkpt>
<trkpt lat="50.571114" lon="4.430677"><time>2026-05-02T21:24:30Z</time></trkpt>
</trkseg>
</trk>
<trk>
<name>bgnhv8</name>
<cmt>r</cmt>
<desc>Houtain-le-Val Chemin n°8 de la Marlière</desc>
<link href="https://chemins.be/houtainleval/chemin/8"/><trkseg>
<trkpt lat="50.583214" lon="4.410261"><time>2026-05-02T19:54:30Z</time></trkpt>
<trkpt lat="50.582361" lon="4.409724"><time>2026-05-02T20:04:30Z</time></trkpt>
<trkpt lat="50.582406" lon="4.408199"><time>2026-05-02T20:14:30Z</time></trkpt>
<trkpt lat="50.582433" lon="4.407493"><time>2026-05-02T20:24:30Z</time></trkpt>
<trkpt lat="50.581931" lon="4.404542"><time>2026-05-02T20:34:30Z</time></trkpt>
<trkpt lat="50.581887" lon="4.402085"><time>2026-05-02T20:44:30Z</time></trkpt>
</trkseg>
</trk>
<trk>
<name>bgnhv9</name>
<cmt>r</cmt>
<desc>Houtain-le-Val Chemin n°9 de la Tourterelle</desc>
<link href="https://chemins.be/houtainleval/chemin/9"/><trkseg>
<trkpt lat="50.583179" lon="4.410205"><time>2026-05-02T19:54:30Z</time></trkpt>
<trkpt lat="50.584023" lon="4.411010"><time>2026-05-02T20:04:30Z</time></trkpt>
<trkpt lat="50.588346" lon="4.414206"><time>2026-05-02T20:14:30Z</time></trkpt>
</trkseg></trk>
<trk>
<name>bgnhv9</name>
<cmt>v</cmt>
<desc>Houtain-le-Val Chemin n°9 de la Tourterelle</desc>
<link href="https://chemins.be/houtainleval/chemin/9"/><trkseg>
<trkpt lat="50.588346" lon="4.414206"><time>2026-05-02T20:14:30Z</time></trkpt>
<trkpt lat="50.589029" lon="4.415689"><time>2026-05-02T20:24:30Z</time></trkpt>
</trkseg>
</trk>
<trk>
<name>bgnhvi4</name>
<cmt>v</cmt>
<desc>Houtain-le-Val Chemin n°i4 </desc>
<link href="https://chemins.be/houtainleval/chemin/i4"/><trkseg>
<trkpt lat="50.572099" lon="4.419710"><time>2026-05-02T19:54:30Z</time></trkpt>
<trkpt lat="50.571919" lon="4.420486"><time>2026-05-02T20:04:30Z</time></trkpt>
</trkseg>
</trk>
</gpx>